sensor_id;sensor_type;location;lat;lon;timestamp;P1;durP1;ratioP1;P2;durP2;ratioP2
76953;SDS011;65893;51.698;-0.292;2023-02-13T00:01:39;31.90;;;12.23;;
76953;SDS011;65893;51.698;-0.292;2023-02-13T00:04:05;27.50;;;11.13;;
76953;SDS011;65893;51.698;-0.292;2023-02-13T00:06:31;26.73;;;10.55;;
76953;SDS011;65893;51.698;-0.292;2023-02-13T00:08:57;28.35;;;12.88;;
76953;SDS011;65893;51.698;-0.292;2023-02-13T00:11:23;27.08;;;11.70;;
76953;SDS011;65893;51.698;-0.292;2023-02-13T00:13:49;28.45;;;12.80;;
76953;SDS011;65893;51.698;-0.292;2023-02-13T00:16:15;33.38;;;13.02;;
76953;SDS011;65893;51.698;-0.292;2023-02-13T00:18:41;29.33;;;12.75;;
76953;SDS011;65893;51.698;-0.292;2023-02-13T00:21:11;26.88;;;12.60;;
76953;SDS011;65893;51.698;-0.292;2023-02-13T00:23:37;30.13;;;12.60;;
76953;SDS011;65893;51.698;-0.292;2023-02-13T00:26:09;29.48;;;12.77;;
76953;SDS011;65893;51.698;-0.292;2023-02-13T00:31:06;35.88;;;14.77;;
76953;SDS011;65893;51.698;-0.292;2023-02-13T00:33:33;39.17;;;14.60;;
76953;SDS011;65893;51.698;-0.292;2023-02-13T00:36:05;37.15;;;15.07;;
76953;SDS011;65893;51.698;-0.292;2023-02-13T00:38:32;30.10;;;13.50;;
76953;SDS011;65893;51.698;-0.292;2023-02-13T00:40:58;42.92;;;16.38;;
76953;SDS011;65893;51.698;-0.292;2023-02-13T00:43:24;43.78;;;15.43;;
76953;SDS011;65893;51.698;-0.292;2023-02-13T00:45:52;39.38;;;15.23;;
76953;SDS011;65893;51.698;-0.292;2023-02-13T00:48:18;47.00;;;17.10;;
76953;SDS011;65893;51.698;-0.292;2023-02-13T00:50:45;46.65;;;17.75;;
76953;SDS011;65893;51.698;-0.292;2023-02-13T00:53:12;48.08;;;19.00;;
76953;SDS011;65893;51.698;-0.292;2023-02-13T00:55:38;41.42;;;17.10;;
76953;SDS011;65893;51.698;-0.292;2023-02-13T00:58:04;47.15;;;17.48;;
76953;SDS011;65893;51.698;-0.292;2023-02-13T01:00:30;47.10;;;17.80;;
76953;SDS011;65893;51.698;-0.292;2023-02-13T01:02:56;52.53;;;19.27;;
76953;SDS011;65893;51.698;-0.292;2023-02-13T01:05:23;48.72;;;18.48;;
76953;SDS011;65893;51.698;-0.292;2023-02-13T01:07:49;50.72;;;17.02;;
76953;SDS011;65893;51.698;-0.292;2023-02-13T01:10:16;46.47;;;15.93;;
76953;SDS011;65893;51.698;-0.292;2023-02-13T01:12:42;44.15;;;17.30;;
76953;SDS011;65893;51.698;-0.292;2023-02-13T01:15:08;41.53;;;16.40;;
76953;SDS011;65893;51.698;-0.292;2023-02-13T01:17:34;44.83;;;15.50;;
76953;SDS011;65893;51.698;-0.292;2023-02-13T01:20:03;46.70;;;16.92;;
76953;SDS011;65893;51.698;-0.292;2023-02-13T01:22:29;53.67;;;17.95;;
76953;SDS011;65893;51.698;-0.292;2023-02-13T01:24:56;52.72;;;18.63;;
76953;SDS011;65893;51.698;-0.292;2023-02-13T01:27:22;52.88;;;18.50;;
76953;SDS011;65893;51.698;-0.292;2023-02-13T01:29:48;46.67;;;17.75;;
76953;SDS011;65893;51.698;-0.292;2023-02-13T01:32:14;53.58;;;19.13;;
76953;SDS011;65893;51.698;-0.292;2023-02-13T01:34:40;52.88;;;18.27;;
76953;SDS011;65893;51.698;-0.292;2023-02-13T01:37:06;46.42;;;17.10;;
76953;SDS011;65893;51.698;-0.292;2023-02-13T01:39:32;49.35;;;17.15;;
76953;SDS011;65893;51.698;-0.292;2023-02-13T01:41:58;55.08;;;19.58;;
76953;SDS011;65893;51.698;-0.292;2023-02-13T01:44:45;45.40;;;18.70;;
76953;SDS011;65893;51.698;-0.292;2023-02-13T01:47:12;44.72;;;18.55;;
76953;SDS011;65893;51.698;-0.292;2023-02-13T01:49:39;49.15;;;17.88;;
76953;SDS011;65893;51.698;-0.292;2023-02-13T01:52:06;51.85;;;19.85;;
76953;SDS011;65893;51.698;-0.292;2023-02-13T01:54:33;56.03;;;20.45;;
76953;SDS011;65893;51.698;-0.292;2023-02-13T01:57:04;49.42;;;18.95;;
76953;SDS011;65893;51.698;-0.292;2023-02-13T01:59:32;47.50;;;19.33;;
76953;SDS011;65893;51.698;-0.292;2023-02-13T02:01:59;49.40;;;19.45;;
76953;SDS011;65893;51.698;-0.292;2023-02-13T02:04:30;53.67;;;20.17;;
76953;SDS011;65893;51.698;-0.292;2023-02-13T02:06:58;55.17;;;20.40;;
76953;SDS011;65893;51.698;-0.292;2023-02-13T02:09:26;49.22;;;19.17;;
76953;SDS011;65893;51.698;-0.292;2023-02-13T02:14:38;55.97;;;21.08;;
76953;SDS011;65893;51.698;-0.292;2023-02-13T02:17:05;50.60;;;19.77;;
76953;SDS011;65893;51.698;-0.292;2023-02-13T02:19:48;47.35;;;19.70;;
76953;SDS011;65893;51.698;-0.292;2023-02-13T02:27:30;48.70;;;19.83;;
76953;SDS011;65893;51.698;-0.292;2023-02-13T02:48:09;49.67;;;20.08;;
76953;SDS011;65893;51.698;-0.292;2023-02-13T02:51:06;55.63;;;21.05;;
76953;SDS011;65893;51.698;-0.292;2023-02-13T02:53:38;53.90;;;22.35;;
76953;SDS011;65893;51.698;-0.292;2023-02-13T02:58:35;48.83;;;20.77;;
76953;SDS011;65893;51.698;-0.292;2023-02-13T03:01:22;47.33;;;20.30;;
76953;SDS011;65893;51.698;-0.292;2023-02-13T03:04:13;51.88;;;21.85;;
76953;SDS011;65893;51.698;-0.292;2023-02-13T03:07:01;54.63;;;19.85;;
76953;SDS011;65893;51.698;-0.292;2023-02-13T03:09:31;51.30;;;19.90;;
76953;SDS011;65893;51.698;-0.292;2023-02-13T03:12:19;46.80;;;19.25;;
76953;SDS011;65893;51.698;-0.292;2023-02-13T03:15:05;45.08;;;19.13;;
76953;SDS011;65893;51.698;-0.292;2023-02-13T03:17:32;48.33;;;19.58;;
76953;SDS011;65893;51.698;-0.292;2023-02-13T03:28:21;49.38;;;20.23;;
76953;SDS011;65893;51.698;-0.292;2023-02-13T03:36:16;52.40;;;21.08;;
76953;SDS011;65893;51.698;-0.292;2023-02-13T03:41:53;45.45;;;19.13;;
76953;SDS011;65893;51.698;-0.292;2023-02-13T03:44:19;42.70;;;19.40;;
76953;SDS011;65893;51.698;-0.292;2023-02-13T03:46:49;52.47;;;20.45;;
76953;SDS011;65893;51.698;-0.292;2023-02-13T03:49:23;45.47;;;17.83;;
76953;SDS011;65893;51.698;-0.292;2023-02-13T03:52:12;42.83;;;18.38;;
76953;SDS011;65893;51.698;-0.292;2023-02-13T03:54:49;42.80;;;19.30;;
76953;SDS011;65893;51.698;-0.292;2023-02-13T03:57:37;47.83;;;18.55;;
76953;SDS011;65893;51.698;-0.292;2023-02-13T04:00:23;41.08;;;16.13;;
76953;SDS011;65893;51.698;-0.292;2023-02-13T04:02:56;39.45;;;17.05;;
76953;SDS011;65893;51.698;-0.292;2023-02-13T04:05:24;41.50;;;18.67;;
76953;SDS011;65893;51.698;-0.292;2023-02-13T04:07:50;36.13;;;16.40;;
76953;SDS011;65893;51.698;-0.292;2023-02-13T04:10:17;35.38;;;15.05;;
76953;SDS011;65893;51.698;-0.292;2023-02-13T04:12:47;36.92;;;15.77;;
76953;SDS011;65893;51.698;-0.292;2023-02-13T04:15:17;36.40;;;14.80;;
76953;SDS011;65893;51.698;-0.292;2023-02-13T04:17:46;32.10;;;14.30;;
76953;SDS011;65893;51.698;-0.292;2023-02-13T04:20:13;32.78;;;12.73;;
76953;SDS011;65893;51.698;-0.292;2023-02-13T04:22:43;34.45;;;14.40;;
76953;SDS011;65893;51.698;-0.292;2023-02-13T04:25:10;30.92;;;13.25;;
76953;SDS011;65893;51.698;-0.292;2023-02-13T04:27:36;29.85;;;14.13;;
76953;SDS011;65893;51.698;-0.292;2023-02-13T04:30:02;36.00;;;15.23;;
76953;SDS011;65893;51.698;-0.292;2023-02-13T04:32:29;38.25;;;15.23;;
76953;SDS011;65893;51.698;-0.292;2023-02-13T04:34:55;33.05;;;15.00;;
76953;SDS011;65893;51.698;-0.292;2023-02-13T04:37:21;32.22;;;13.43;;
76953;SDS011;65893;51.698;-0.292;2023-02-13T04:39:47;30.80;;;13.82;;
76953;SDS011;65893;51.698;-0.292;2023-02-13T04:42:13;29.30;;;12.77;;
76953;SDS011;65893;51.698;-0.292;2023-02-13T04:44:39;32.83;;;14.15;;
76953;SDS011;65893;51.698;-0.292;2023-02-13T04:47:05;29.48;;;14.38;;
76953;SDS011;65893;51.698;-0.292;2023-02-13T04:49:31;31.30;;;12.32;;
76953;SDS011;65893;51.698;-0.292;2023-02-13T04:51:57;28.98;;;12.48;;
76953;SDS011;65893;51.698;-0.292;2023-02-13T04:54:23;34.03;;;12.80;;
76953;SDS011;65893;51.698;-0.292;2023-02-13T04:56:49;29.55;;;12.75;;
76953;SDS011;65893;51.698;-0.292;2023-02-13T04:59:15;35.45;;;13.90;;
76953;SDS011;65893;51.698;-0.292;2023-02-13T05:01:41;38.58;;;13.77;;
76953;SDS011;65893;51.698;-0.292;2023-02-13T05:04:07;30.63;;;13.15;;
76953;SDS011;65893;51.698;-0.292;2023-02-13T05:06:35;31.20;;;12.13;;
76953;SDS011;65893;51.698;-0.292;2023-02-13T05:09:02;32.05;;;13.43;;
76953;SDS011;65893;51.698;-0.292;2023-02-13T05:11:28;31.35;;;13.20;;
76953;SDS011;65893;51.698;-0.292;2023-02-13T05:13:54;34.35;;;14.27;;
76953;SDS011;65893;51.698;-0.292;2023-02-13T05:16:20;30.35;;;14.27;;
76953;SDS011;65893;51.698;-0.292;2023-02-13T05:18:46;35.63;;;14.32;;
76953;SDS011;65893;51.698;-0.292;2023-02-13T05:21:12;33.08;;;13.35;;
76953;SDS011;65893;51.698;-0.292;2023-02-13T05:24:04;34.97;;;14.20;;
76953;SDS011;65893;51.698;-0.292;2023-02-13T05:26:31;34.10;;;14.57;;
76953;SDS011;65893;51.698;-0.292;2023-02-13T05:28:57;29.92;;;11.80;;
76953;SDS011;65893;51.698;-0.292;2023-02-13T05:34:07;32.97;;;13.52;;
76953;SDS011;65893;51.698;-0.292;2023-02-13T05:36:33;37.25;;;14.98;;
76953;SDS011;65893;51.698;-0.292;2023-02-13T05:38:59;36.53;;;15.57;;
76953;SDS011;65893;51.698;-0.292;2023-02-13T05:41:25;35.05;;;15.00;;
76953;SDS011;65893;51.698;-0.292;2023-02-13T05:43:51;38.72;;;16.25;;
76953;SDS011;65893;51.698;-0.292;2023-02-13T05:46:18;39.95;;;15.90;;
76953;SDS011;65893;51.698;-0.292;2023-02-13T05:48:44;36.28;;;14.27;;
76953;SDS011;65893;51.698;-0.292;2023-02-13T05:51:10;38.60;;;17.10;;
76953;SDS011;65893;51.698;-0.292;2023-02-13T05:53:36;41.15;;;16.45;;
76953;SDS011;65893;51.698;-0.292;2023-02-13T05:56:02;42.25;;;17.67;;
76953;SDS011;65893;51.698;-0.292;2023-02-13T05:58:29;37.85;;;16.58;;
76953;SDS011;65893;51.698;-0.292;2023-02-13T06:00:55;40.10;;;15.52;;
76953;SDS011;65893;51.698;-0.292;2023-02-13T06:03:23;44.92;;;17.45;;
76953;SDS011;65893;51.698;-0.292;2023-02-13T06:05:49;37.15;;;15.52;;
76953;SDS011;65893;51.698;-0.292;2023-02-13T06:08:15;37.35;;;15.60;;
76953;SDS011;65893;51.698;-0.292;2023-02-13T06:10:41;41.92;;;16.40;;
76953;SDS011;65893;51.698;-0.292;2023-02-13T06:13:07;38.47;;;17.38;;
76953;SDS011;65893;51.698;-0.292;2023-02-13T06:15:33;45.00;;;17.88;;
76953;SDS011;65893;51.698;-0.292;2023-02-13T06:17:59;50.10;;;17.73;;
76953;SDS011;65893;51.698;-0.292;2023-02-13T06:20:28;46.90;;;20.52;;
76953;SDS011;65893;51.698;-0.292;2023-02-13T06:22:54;47.70;;;18.70;;
76953;SDS011;65893;51.698;-0.292;2023-02-13T06:25:20;45.20;;;18.88;;
76953;SDS011;65893;51.698;-0.292;2023-02-13T06:27:49;44.75;;;19.38;;
76953;SDS011;65893;51.698;-0.292;2023-02-13T06:30:15;47.80;;;19.75;;
76953;SDS011;65893;51.698;-0.292;2023-02-13T06:32:43;44.40;;;18.65;;
76953;SDS011;65893;51.698;-0.292;2023-02-13T06:35:10;47.13;;;18.98;;
76953;SDS011;65893;51.698;-0.292;2023-02-13T06:37:36;49.72;;;19.08;;
76953;SDS011;65893;51.698;-0.292;2023-02-13T06:40:03;48.80;;;19.83;;
76953;SDS011;65893;51.698;-0.292;2023-02-13T06:42:30;47.13;;;19.13;;
76953;SDS011;65893;51.698;-0.292;2023-02-13T06:44:56;44.10;;;17.95;;
76953;SDS011;65893;51.698;-0.292;2023-02-13T06:47:22;49.85;;;19.73;;
76953;SDS011;65893;51.698;-0.292;2023-02-13T06:49:48;47.05;;;20.52;;
76953;SDS011;65893;51.698;-0.292;2023-02-13T06:52:14;42.13;;;18.33;;
76953;SDS011;65893;51.698;-0.292;2023-02-13T06:54:40;44.08;;;19.27;;
76953;SDS011;65893;51.698;-0.292;2023-02-13T06:57:06;42.97;;;17.02;;
76953;SDS011;65893;51.698;-0.292;2023-02-13T06:59:32;45.28;;;19.90;;
76953;SDS011;65893;51.698;-0.292;2023-02-13T07:01:58;40.22;;;17.27;;
76953;SDS011;65893;51.698;-0.292;2023-02-13T07:04:24;43.90;;;18.48;;
76953;SDS011;65893;51.698;-0.292;2023-02-13T07:06:53;41.22;;;16.35;;
76953;SDS011;65893;51.698;-0.292;2023-02-13T07:09:19;45.60;;;17.80;;
76953;SDS011;65893;51.698;-0.292;2023-02-13T07:11:45;38.20;;;17.23;;
76953;SDS011;65893;51.698;-0.292;2023-02-13T07:14:11;40.65;;;16.73;;
76953;SDS011;65893;51.698;-0.292;2023-02-13T07:16:37;44.05;;;18.10;;
76953;SDS011;65893;51.698;-0.292;2023-02-13T07:19:03;45.67;;;19.58;;
76953;SDS011;65893;51.698;-0.292;2023-02-13T07:21:29;44.20;;;18.55;;
76953;SDS011;65893;51.698;-0.292;2023-02-13T07:23:55;44.08;;;19.15;;
76953;SDS011;65893;51.698;-0.292;2023-02-13T07:26:21;47.85;;;19.90;;
76953;SDS011;65893;51.698;-0.292;2023-02-13T07:28:47;44.75;;;17.77;;
76953;SDS011;65893;51.698;-0.292;2023-02-13T07:31:13;43.22;;;18.45;;
76953;SDS011;65893;51.698;-0.292;2023-02-13T07:33:39;44.58;;;18.00;;
76953;SDS011;65893;51.698;-0.292;2023-02-13T07:36:06;40.85;;;17.95;;
76953;SDS011;65893;51.698;-0.292;2023-02-13T07:38:32;48.15;;;19.48;;
76953;SDS011;65893;51.698;-0.292;2023-02-13T07:40:58;54.53;;;20.92;;
76953;SDS011;65893;51.698;-0.292;2023-02-13T07:43:24;52.45;;;20.63;;
76953;SDS011;65893;51.698;-0.292;2023-02-13T07:45:51;49.25;;;18.60;;
76953;SDS011;65893;51.698;-0.292;2023-02-13T07:48:20;46.30;;;18.30;;
76953;SDS011;65893;51.698;-0.292;2023-02-13T07:50:47;47.92;;;21.83;;
76953;SDS011;65893;51.698;-0.292;2023-02-13T07:53:13;47.20;;;20.95;;
76953;SDS011;65893;51.698;-0.292;2023-02-13T07:55:39;49.35;;;20.85;;
76953;SDS011;65893;51.698;-0.292;2023-02-13T07:58:05;47.15;;;19.15;;
76953;SDS011;65893;51.698;-0.292;2023-02-13T08:00:31;51.85;;;21.70;;
76953;SDS011;65893;51.698;-0.292;2023-02-13T08:02:58;49.20;;;18.52;;
76953;SDS011;65893;51.698;-0.292;2023-02-13T08:05:24;47.58;;;18.67;;
76953;SDS011;65893;51.698;-0.292;2023-02-13T08:07:50;51.58;;;20.15;;
76953;SDS011;65893;51.698;-0.292;2023-02-13T08:10:17;54.63;;;20.20;;
76953;SDS011;65893;51.698;-0.292;2023-02-13T08:13:02;54.40;;;22.40;;
76953;SDS011;65893;51.698;-0.292;2023-02-13T08:15:29;55.70;;;21.20;;
76953;SDS011;65893;51.698;-0.292;2023-02-13T08:17:55;54.45;;;22.00;;
76953;SDS011;65893;51.698;-0.292;2023-02-13T08:20:21;54.70;;;23.67;;
76953;SDS011;65893;51.698;-0.292;2023-02-13T08:22:50;63.35;;;27.25;;
76953;SDS011;65893;51.698;-0.292;2023-02-13T08:25:16;56.10;;;22.77;;
76953;SDS011;65893;51.698;-0.292;2023-02-13T08:27:44;55.92;;;22.95;;
76953;SDS011;65893;51.698;-0.292;2023-02-13T08:30:10;55.40;;;24.25;;
76953;SDS011;65893;51.698;-0.292;2023-02-13T08:32:41;55.97;;;23.13;;
76953;SDS011;65893;51.698;-0.292;2023-02-13T08:35:07;51.58;;;21.98;;
76953;SDS011;65893;51.698;-0.292;2023-02-13T08:37:33;52.72;;;22.40;;
76953;SDS011;65893;51.698;-0.292;2023-02-13T08:40:02;58.65;;;24.40;;
76953;SDS011;65893;51.698;-0.292;2023-02-13T08:42:31;69.43;;;23.40;;
76953;SDS011;65893;51.698;-0.292;2023-02-13T08:44:57;54.33;;;23.85;;
76953;SDS011;65893;51.698;-0.292;2023-02-13T08:47:23;56.47;;;22.20;;
76953;SDS011;65893;51.698;-0.292;2023-02-13T08:49:49;51.08;;;22.83;;
76953;SDS011;65893;51.698;-0.292;2023-02-13T08:52:15;59.33;;;23.75;;
76953;SDS011;65893;51.698;-0.292;2023-02-13T08:54:41;54.38;;;22.17;;
76953;SDS011;65893;51.698;-0.292;2023-02-13T08:57:07;54.38;;;21.20;;
76953;SDS011;65893;51.698;-0.292;2023-02-13T08:59:33;48.85;;;20.08;;
76953;SDS011;65893;51.698;-0.292;2023-02-13T09:01:59;51.72;;;21.38;;
76953;SDS011;65893;51.698;-0.292;2023-02-13T09:04:25;48.90;;;18.95;;
76953;SDS011;65893;51.698;-0.292;2023-02-13T09:06:52;50.13;;;20.90;;
76953;SDS011;65893;51.698;-0.292;2023-02-13T09:09:18;52.67;;;19.58;;
76953;SDS011;65893;51.698;-0.292;2023-02-13T09:11:44;59.63;;;20.65;;
76953;SDS011;65893;51.698;-0.292;2023-02-13T09:14:10;53.70;;;20.98;;
76953;SDS011;65893;51.698;-0.292;2023-02-13T09:16:36;52.85;;;19.08;;
76953;SDS011;65893;51.698;-0.292;2023-02-13T09:19:02;50.25;;;19.90;;
76953;SDS011;65893;51.698;-0.292;2023-02-13T09:21:28;48.75;;;18.08;;
76953;SDS011;65893;51.698;-0.292;2023-02-13T09:23:55;40.00;;;16.17;;
76953;SDS011;65893;51.698;-0.292;2023-02-13T09:26:21;48.72;;;18.27;;
76953;SDS011;65893;51.698;-0.292;2023-02-13T09:28:47;49.97;;;19.13;;
76953;SDS011;65893;51.698;-0.292;2023-02-13T09:31:16;42.83;;;19.05;;
76953;SDS011;65893;51.698;-0.292;2023-02-13T09:33:43;47.88;;;19.90;;
76953;SDS011;65893;51.698;-0.292;2023-02-13T09:36:11;40.58;;;16.63;;
76953;SDS011;65893;51.698;-0.292;2023-02-13T09:38:38;37.40;;;15.73;;
76953;SDS011;65893;51.698;-0.292;2023-02-13T09:41:15;42.35;;;15.48;;
76953;SDS011;65893;51.698;-0.292;2023-02-13T09:43:48;40.38;;;17.50;;
76953;SDS011;65893;51.698;-0.292;2023-02-13T09:48:41;46.75;;;18.27;;
76953;SDS011;65893;51.698;-0.292;2023-02-13T09:51:12;22.02;;;8.63;;
76953;SDS011;65893;51.698;-0.292;2023-02-13T09:53:39;39.75;;;16.77;;
76953;SDS011;65893;51.698;-0.292;2023-02-13T09:56:17;42.55;;;16.52;;
76953;SDS011;65893;51.698;-0.292;2023-02-13T09:59:06;45.38;;;17.35;;
76953;SDS011;65893;51.698;-0.292;2023-02-13T10:01:35;37.67;;;16.70;;
76953;SDS011;65893;51.698;-0.292;2023-02-13T10:09:36;37.30;;;16.20;;
76953;SDS011;65893;51.698;-0.292;2023-02-13T10:12:12;39.05;;;15.30;;
76953;SDS011;65893;51.698;-0.292;2023-02-13T10:17:15;38.17;;;16.17;;
76953;SDS011;65893;51.698;-0.292;2023-02-13T10:22:16;44.80;;;17.52;;
76953;SDS011;65893;51.698;-0.292;2023-02-13T10:27:20;37.60;;;16.52;;
76953;SDS011;65893;51.698;-0.292;2023-02-13T10:29:54;36.88;;;15.32;;
76953;SDS011;65893;51.698;-0.292;2023-02-13T10:35:32;40.50;;;16.40;;
76953;SDS011;65893;51.698;-0.292;2023-02-13T10:37:58;40.85;;;16.65;;
76953;SDS011;65893;51.698;-0.292;2023-02-13T10:40:30;39.47;;;16.58;;
76953;SDS011;65893;51.698;-0.292;2023-02-13T10:43:06;41.47;;;15.82;;
76953;SDS011;65893;51.698;-0.292;2023-02-13T10:50:35;39.38;;;15.98;;
76953;SDS011;65893;51.698;-0.292;2023-02-13T10:53:10;42.53;;;15.15;;
76953;SDS011;65893;51.698;-0.292;2023-02-13T11:01:22;36.20;;;14.27;;
76953;SDS011;65893;51.698;-0.292;2023-02-13T11:04:09;37.58;;;14.38;;
76953;SDS011;65893;51.698;-0.292;2023-02-13T11:06:36;36.95;;;14.57;;
76953;SDS011;65893;51.698;-0.292;2023-02-13T11:09:04;30.92;;;13.68;;
76953;SDS011;65893;51.698;-0.292;2023-02-13T11:11:33;32.03;;;13.98;;
76953;SDS011;65893;51.698;-0.292;2023-02-13T11:14:10;34.17;;;15.45;;
76953;SDS011;65893;51.698;-0.292;2023-02-13T11:16:37;37.95;;;15.65;;
76953;SDS011;65893;51.698;-0.292;2023-02-13T11:19:04;31.48;;;14.52;;
76953;SDS011;65893;51.698;-0.292;2023-02-13T11:21:32;40.42;;;16.35;;
76953;SDS011;65893;51.698;-0.292;2023-02-13T11:24:00;33.90;;;14.63;;
76953;SDS011;65893;51.698;-0.292;2023-02-13T11:26:35;31.42;;;13.80;;
76953;SDS011;65893;51.698;-0.292;2023-02-13T11:29:05;32.28;;;14.57;;
76953;SDS011;65893;51.698;-0.292;2023-02-13T11:31:40;32.55;;;14.40;;
76953;SDS011;65893;51.698;-0.292;2023-02-13T11:34:25;28.70;;;12.57;;
76953;SDS011;65893;51.698;-0.292;2023-02-13T11:36:53;31.85;;;12.23;;
76953;SDS011;65893;51.698;-0.292;2023-02-13T11:39:24;30.58;;;12.90;;
76953;SDS011;65893;51.698;-0.292;2023-02-13T11:41:51;27.08;;;12.23;;
76953;SDS011;65893;51.698;-0.292;2023-02-13T11:44:19;23.65;;;10.70;;
76953;SDS011;65893;51.698;-0.292;2023-02-13T11:46:46;30.42;;;12.27;;
76953;SDS011;65893;51.698;-0.292;2023-02-13T11:49:15;28.73;;;12.15;;
76953;SDS011;65893;51.698;-0.292;2023-02-13T11:51:46;30.67;;;12.88;;
76953;SDS011;65893;51.698;-0.292;2023-02-13T11:54:55;26.65;;;12.50;;
76953;SDS011;65893;51.698;-0.292;2023-02-13T11:57:24;29.13;;;13.75;;
76953;SDS011;65893;51.698;-0.292;2023-02-13T11:59:49;25.33;;;12.50;;
76953;SDS011;65893;51.698;-0.292;2023-02-13T12:02:28;22.98;;;12.25;;
76953;SDS011;65893;51.698;-0.292;2023-02-13T12:07:40;27.10;;;12.73;;
76953;SDS011;65893;51.698;-0.292;2023-02-13T12:10:14;27.77;;;13.18;;
76953;SDS011;65893;51.698;-0.292;2023-02-13T12:15:29;29.75;;;12.77;;
76953;SDS011;65893;51.698;-0.292;2023-02-13T12:18:09;25.55;;;13.50;;
76953;SDS011;65893;51.698;-0.292;2023-02-13T12:20:39;29.17;;;12.57;;
76953;SDS011;65893;51.698;-0.292;2023-02-13T12:28:48;29.75;;;12.95;;
76953;SDS011;65893;51.698;-0.292;2023-02-13T12:31:18;28.98;;;13.30;;
76953;SDS011;65893;51.698;-0.292;2023-02-13T12:33:57;25.85;;;12.35;;
76953;SDS011;65893;51.698;-0.292;2023-02-13T12:46:49;33.33;;;13.02;;
76953;SDS011;65893;51.698;-0.292;2023-02-13T12:57:20;25.63;;;12.23;;
76953;SDS011;65893;51.698;-0.292;2023-02-13T12:59:56;26.20;;;13.10;;
76953;SDS011;65893;51.698;-0.292;2023-02-13T13:02:37;30.25;;;13.40;;
76953;SDS011;65893;51.698;-0.292;2023-02-13T13:05:16;31.20;;;13.20;;
76953;SDS011;65893;51.698;-0.292;2023-02-13T13:21:02;25.95;;;11.60;;
76953;SDS011;65893;51.698;-0.292;2023-02-13T13:23:39;28.35;;;13.00;;
76953;SDS011;65893;51.698;-0.292;2023-02-13T13:28:51;27.20;;;12.65;;
76953;SDS011;65893;51.698;-0.292;2023-02-13T13:31:18;25.80;;;12.63;;
76953;SDS011;65893;51.698;-0.292;2023-02-13T13:33:45;26.92;;;12.40;;
76953;SDS011;65893;51.698;-0.292;2023-02-13T13:36:20;25.15;;;11.18;;
76953;SDS011;65893;51.698;-0.292;2023-02-13T13:46:39;27.42;;;11.80;;
76953;SDS011;65893;51.698;-0.292;2023-02-13T13:49:11;27.40;;;12.73;;
76953;SDS011;65893;51.698;-0.292;2023-02-13T13:51:40;25.48;;;13.30;;
76953;SDS011;65893;51.698;-0.292;2023-02-13T13:57:02;28.25;;;12.43;;
76953;SDS011;65893;51.698;-0.292;2023-02-13T14:07:19;25.20;;;12.15;;
76953;SDS011;65893;51.698;-0.292;2023-02-13T14:09:47;21.45;;;11.10;;
76953;SDS011;65893;51.698;-0.292;2023-02-13T14:14:49;26.83;;;11.60;;
76953;SDS011;65893;51.698;-0.292;2023-02-13T14:17:16;25.17;;;11.20;;
76953;SDS011;65893;51.698;-0.292;2023-02-13T14:20:02;26.90;;;12.20;;
76953;SDS011;65893;51.698;-0.292;2023-02-13T14:22:41;25.55;;;11.45;;
76953;SDS011;65893;51.698;-0.292;2023-02-13T14:25:22;26.70;;;12.15;;
76953;SDS011;65893;51.698;-0.292;2023-02-13T14:27:55;22.92;;;10.05;;
76953;SDS011;65893;51.698;-0.292;2023-02-13T14:30:25;23.90;;;11.88;;
76953;SDS011;65893;51.698;-0.292;2023-02-13T14:32:52;27.13;;;11.75;;
76953;SDS011;65893;51.698;-0.292;2023-02-13T14:35:23;25.05;;;10.68;;
76953;SDS011;65893;51.698;-0.292;2023-02-13T14:37:50;23.60;;;12.18;;
76953;SDS011;65893;51.698;-0.292;2023-02-13T14:42:47;24.92;;;11.30;;
76953;SDS011;65893;51.698;-0.292;2023-02-13T14:45:17;24.42;;;9.48;;
76953;SDS011;65893;51.698;-0.292;2023-02-13T14:47:46;25.40;;;10.50;;
76953;SDS011;65893;51.698;-0.292;2023-02-13T14:50:21;19.55;;;10.05;;
76953;SDS011;65893;51.698;-0.292;2023-02-13T14:52:48;25.90;;;10.85;;
76953;SDS011;65893;51.698;-0.292;2023-02-13T14:55:33;23.35;;;11.52;;
76953;SDS011;65893;51.698;-0.292;2023-02-13T15:01:05;24.23;;;10.93;;
76953;SDS011;65893;51.698;-0.292;2023-02-13T15:08:31;17.70;;;9.40;;
76953;SDS011;65893;51.698;-0.292;2023-02-13T15:10:59;20.38;;;9.18;;
76953;SDS011;65893;51.698;-0.292;2023-02-13T15:13:30;22.20;;;10.05;;
76953;SDS011;65893;51.698;-0.292;2023-02-13T15:18:26;24.27;;;10.98;;
76953;SDS011;65893;51.698;-0.292;2023-02-13T15:20:56;23.55;;;10.05;;
76953;SDS011;65893;51.698;-0.292;2023-02-13T15:23:25;23.90;;;10.00;;
76953;SDS011;65893;51.698;-0.292;2023-02-13T15:25:56;25.02;;;10.55;;
76953;SDS011;65893;51.698;-0.292;2023-02-13T15:28:23;24.75;;;10.40;;
76953;SDS011;65893;51.698;-0.292;2023-02-13T15:31:32;24.05;;;9.77;;
76953;SDS011;65893;51.698;-0.292;2023-02-13T15:33:42;25.45;;;10.85;;
76953;SDS011;65893;51.698;-0.292;2023-02-13T15:36:17;21.27;;;9.40;;
76953;SDS011;65893;51.698;-0.292;2023-02-13T15:38:43;29.13;;;11.48;;
76953;SDS011;65893;51.698;-0.292;2023-02-13T15:41:11;21.75;;;10.57;;
76953;SDS011;65893;51.698;-0.292;2023-02-13T15:43:42;23.88;;;9.95;;
76953;SDS011;65893;51.698;-0.292;2023-02-13T15:46:51;20.85;;;9.30;;
76953;SDS011;65893;51.698;-0.292;2023-02-13T15:49:08;20.80;;;10.15;;
76953;SDS011;65893;51.698;-0.292;2023-02-13T15:51:37;23.58;;;11.30;;
76953;SDS011;65893;51.698;-0.292;2023-02-13T15:54:04;27.92;;;10.82;;
76953;SDS011;65893;51.698;-0.292;2023-02-13T15:56:30;27.05;;;10.80;;
76953;SDS011;65893;51.698;-0.292;2023-02-13T15:58:57;20.73;;;9.88;;
76953;SDS011;65893;51.698;-0.292;2023-02-13T16:01:24;23.05;;;10.35;;
76953;SDS011;65893;51.698;-0.292;2023-02-13T16:04:04;24.35;;;10.82;;
76953;SDS011;65893;51.698;-0.292;2023-02-13T16:06:31;26.63;;;10.90;;
76953;SDS011;65893;51.698;-0.292;2023-02-13T16:08:58;22.42;;;10.70;;
76953;SDS011;65893;51.698;-0.292;2023-02-13T16:11:25;23.83;;;11.23;;
76953;SDS011;65893;51.698;-0.292;2023-02-13T16:16:22;26.63;;;11.40;;
76953;SDS011;65893;51.698;-0.292;2023-02-13T16:18:48;33.00;;;11.52;;
76953;SDS011;65893;51.698;-0.292;2023-02-13T16:21:14;26.75;;;12.20;;
76953;SDS011;65893;51.698;-0.292;2023-02-13T16:23:42;26.75;;;12.07;;
76953;SDS011;65893;51.698;-0.292;2023-02-13T16:26:11;29.70;;;12.45;;
76953;SDS011;65893;51.698;-0.292;2023-02-13T16:28:37;26.65;;;10.57;;
76953;SDS011;65893;51.698;-0.292;2023-02-13T16:31:03;25.70;;;12.98;;
76953;SDS011;65893;51.698;-0.292;2023-02-13T16:33:30;24.98;;;11.25;;
76953;SDS011;65893;51.698;-0.292;2023-02-13T16:41:43;24.85;;;12.25;;
76953;SDS011;65893;51.698;-0.292;2023-02-13T16:51:10;28.13;;;12.35;;
76953;SDS011;65893;51.698;-0.292;2023-02-13T16:53:36;28.13;;;12.63;;
76953;SDS011;65893;51.698;-0.292;2023-02-13T16:56:07;25.52;;;12.27;;
76953;SDS011;65893;51.698;-0.292;2023-02-13T16:58:34;30.70;;;12.63;;
76953;SDS011;65893;51.698;-0.292;2023-02-13T17:01:00;28.27;;;11.20;;
76953;SDS011;65893;51.698;-0.292;2023-02-13T17:03:27;30.20;;;11.82;;
76953;SDS011;65893;51.698;-0.292;2023-02-13T17:05:53;30.33;;;12.70;;
76953;SDS011;65893;51.698;-0.292;2023-02-13T17:08:19;34.20;;;13.05;;
76953;SDS011;65893;51.698;-0.292;2023-02-13T17:11:07;28.75;;;12.35;;
76953;SDS011;65893;51.698;-0.292;2023-02-13T17:13:33;28.48;;;12.57;;
76953;SDS011;65893;51.698;-0.292;2023-02-13T17:15:59;25.65;;;11.50;;